CST,Max TemperatureF,Mean TemperatureF,Min TemperatureF,Max Dew PointF,MeanDew PointF,Min DewpointF,Max Humidity, Mean Humidity, Min Humidity, Max Sea Level PressureIn, Mean Sea Level PressureIn, Min Sea Level PressureIn, Max VisibilityMiles, Mean VisibilityMiles, Min VisibilityMiles, Max Wind SpeedMPH, Mean Wind SpeedMPH, Max Gust SpeedMPH,PrecipitationIn, CloudCover, Events, WindDirDegrees
2012-1-1,41,31,21,19,15,3,63,45,27,30.59,30.44,30.19,10,10,10,28,15,35,0.00,0,,298
2012-1-2,37,25,12,10,4,-2,62,46,29,30.69,30.62,30.48,10,10,10,13,7,,0.00,0,,283
2012-1-3,55,39,23,28,19,10,74,53,32,30.34,30.11,29.97,10,10,10,16,11,,0.00,0,,220
2012-1-4,59,44,28,28,22,9,63,40,17,30.34,30.25,30.18,10,10,9,17,10,27,0.00,0,,273
2012-1-5,68,50,32,28,24,21,66,44,22,30.15,30.01,29.82,10,10,9,16,9,20,0.00,0,,254
2012-1-6,52,37,21,25,21,12,71,46,21,30.09,29.91,29.74,10,10,10,27,15,38,0.00,0,,329
2012-1-7,39,29,18,28,18,10,92,66,40,30.25,30.17,30.12,10,10,10,12,6,,0.00,3,,301
2012-1-8,39,31,23,32,29,25,100,82,64,30.32,30.27,30.25,10,10,10,13,8,,T,6,,207
2012-1-9,54,39,23,28,24,16,88,62,35,30.24,30.17,30.09,10,10,10,13,8,,0.00,0,,265
2012-1-10,59,42,25,30,27,21,85,59,33,30.07,29.95,29.78,10,10,10,14,8,,0.00,0,,254
2012-1-11,43,30,16,30,22,7,70,56,42,30.11,29.88,29.65,10,10,9,39,25,52,T,5,,312
2012-1-12,27,18,9,9,-5,-15,73,46,18,30.09,30.05,30.02,10,10,6,27,19,36,0.00,2,,313
2012-1-13,43,28,12,21,14,-2,92,63,33,30.06,30.01,29.92,10,10,10,17,9,22,0.00,2,,277
2012-1-14,46,37,27,21,16,7,75,49,23,30.21,30.11,29.95,10,10,10,25,15,32,0.00,1,,287
2012-1-15,63,42,21,23,17,12,74,47,19,29.98,29.82,29.71,10,10,10,17,11,21,0.00,0,,201
2012-1-16,36,24,12,23,17,9,92,71,50,29.85,29.78,29.71,10,10,10,25,18,31,0.00,2,,5
2012-1-17,25,16,7,10,6,1,92,75,57,30.36,30.24,30.04,10,10,6,22,12,27,0.00,1,,291
2012-1-18,48,29,9,25,14,3,88,57,26,30.16,29.94,29.79,10,10,10,20,15,27,0.00,0,,225
2012-1-19,18,10,1,1,-3,-8,69,56,43,30.10,30.00,29.89,10,10,10,20,13,16,0.00,0,,49
2012-1-20,28,19,10,10,5,1,73,58,42,30.07,29.88,29.78,10,10,10,21,11,28,0.00,1,,118
2012-1-21,30,20,9,14,9,3,91,69,47,30.18,29.94,29.61,10,10,10,25,15,31,0.00,2,,158
2012-1-22,39,28,16,36,23,10,96,76,56,29.68,29.43,29.30,10,10,3,27,14,33,0.03,4,,333
2012-1-23,46,34,21,27,19,12,75,51,26,29.95,29.87,29.74,10,10,10,23,11,30,0.00,0,,292
2012-1-24,37,27,16,28,20,12,92,78,64,30.12,30.05,29.98,10,10,10,13,8,17,0.00,2,,78
2012-1-25,48,33,18,27,21,10,100,65,29,30.23,30.10,29.92,10,10,9,17,8,21,0.00,1,,252
2012-1-26,50,39,27,36,23,12,92,58,24,30.06,29.99,29.90,10,10,10,24,12,32,0.00,1,,304
2012-1-27,46,35,23,27,20,12,68,53,37,30.16,29.93,29.78,10,10,10,29,15,39,0.00,6,,343
2012-1-28,45,32,18,18,10,1,77,48,18,30.30,30.26,30.22,10,10,10,24,14,32,0.00,0,,276
2012-1-29,54,36,18,16,11,3,55,39,22,30.21,30.14,30.00,10,10,10,18,10,22,0.00,7,,239
2012-1-30,66,48,30,25,20,14,52,35,18,29.91,29.83,29.74,10,10,10,15,12,21,0.00,0,,240
2012-1-31,57,42,27,28,21,16,54,38,22,30.03,29.91,29.80,10,10,10,20,10,25,0.00,0,,311